Time;durP1;ratioP1;P1;durP2;ratioP2;P2;SDS_P1;SDS_P2;PMS_P1;PMS_P2;Temp;Humidity;BMP_temperature;BMP_pressure;BME280_temperature;BME280_humidity;BME280_pressure;Samples;Min_cycle;Max_cycle;Signal;HPM_P1;HPM_P2
2022/10/12 00:01:18;;;;;;;9.67;7.43;;;5.60;99.90;;;;;;5049355;28;20156;-46
2022/10/12 00:03:44;;;;;;;15.43;7.77;;;5.60;99.90;;;;;;5065481;28;20278;-50
2022/10/12 00:06:16;;;;;;;11.60;8.03;;;5.50;99.90;;;;;;5069041;28;20183;-48
2022/10/12 00:08:42;;;;;;;10.93;8.25;;;5.60;99.90;;;;;;5066932;28;20197;-47
2022/10/12 00:11:12;;;;;;;13.55;7.45;;;5.50;99.90;;;;;;5072473;28;20268;-48
2022/10/12 00:13:38;;;;;;;13.52;8.20;;;5.50;99.90;;;;;;5059024;28;20246;-49
2022/10/12 00:16:05;;;;;;;9.70;7.50;;;5.50;99.90;;;;;;5053184;28;20209;-49
2022/10/12 00:18:31;;;;;;;12.45;8.05;;;5.40;99.90;;;;;;5062556;28;20665;-47
2022/10/12 00:21:15;;;;;;;10.07;7.20;;;5.40;99.90;;;;;;5072871;28;20503;-47
2022/10/12 00:23:43;;;;;;;11.63;8.20;;;5.40;99.90;;;;;;5058659;28;20186;-44
2022/10/12 00:26:12;;;;;;;10.90;8.48;;;5.40;99.90;;;;;;5051923;28;20181;-47
2022/10/12 00:28:37;;;;;;;11.15;8.30;;;5.40;99.90;;;;;;5065621;28;20181;-45
2022/10/12 00:31:12;;;;;;;10.40;8.47;;;5.30;99.90;;;;;;5073005;28;20181;-46
2022/10/12 00:33:38;;;;;;;12.77;9.25;;;5.30;99.90;;;;;;5053243;28;20189;-47
2022/10/12 00:36:25;;;;;;;12.80;8.57;;;5.30;99.90;;;;;;5064543;28;20225;-47
2022/10/12 00:38:53;;;;;;;11.05;8.30;;;5.30;99.90;;;;;;5058092;28;20517;-45
2022/10/12 00:41:22;;;;;;;10.63;8.80;;;5.30;99.90;;;;;;5057413;28;20182;-47
2022/10/12 00:43:49;;;;;;;10.90;8.57;;;5.20;99.90;;;;;;5063975;28;20185;-48
2022/10/12 00:46:33;;;;;;;12.40;8.13;;;5.20;99.90;;;;;;5060712;28;20181;-49
2022/10/12 00:49:08;;;;;;;10.98;8.05;;;5.20;99.90;;;;;;5052566;28;20276;-47
2022/10/12 00:51:34;;;;;;;12.77;8.07;;;5.20;99.90;;;;;;5054629;28;20247;-47
2022/10/12 00:54:04;;;;;;;14.40;9.40;;;5.20;99.90;;;;;;5071099;28;20181;-48
2022/10/12 00:56:35;;;;;;;10.02;8.25;;;5.20;99.90;;;;;;5070331;28;20193;-47
2022/10/12 00:59:04;;;;;;;10.75;8.63;;;5.10;99.90;;;;;;5079385;28;20269;-46
2022/10/12 01:01:33;;;;;;;11.85;9.05;;;5.10;99.90;;;;;;5074482;28;20309;-50
2022/10/12 01:04:00;;;;;;;12.60;9.25;;;5.10;99.90;;;;;;5069798;28;20235;-49
2022/10/12 01:06:25;;;;;;;13.48;9.65;;;5.10;99.90;;;;;;5068721;28;20269;-47
2022/10/12 01:08:54;;;;;;;12.77;9.70;;;5.10;99.90;;;;;;5064807;28;20565;-46
2022/10/12 01:11:20;;;;;;;14.77;10.50;;;5.10;99.90;;;;;;5065831;28;20208;-46
2022/10/12 01:13:45;;;;;;;15.60;10.30;;;5.00;99.90;;;;;;5064607;28;20186;-45
2022/10/12 01:16:14;;;;;;;14.63;9.90;;;5.00;99.90;;;;;;5071856;28;20185;-46
2022/10/12 01:18:58;;;;;;;13.32;9.45;;;5.00;99.90;;;;;;5070903;28;20205;-45
2022/10/12 01:21:25;;;;;;;13.73;9.90;;;5.00;99.90;;;;;;5070831;28;20517;-49
2022/10/12 01:24:11;;;;;;;12.15;9.25;;;5.00;99.90;;;;;;5057842;28;20551;-45
2022/10/12 01:26:58;;;;;;;14.05;10.20;;;5.00;99.90;;;;;;5070987;28;20181;-46
2022/10/12 01:29:45;;;;;;;13.50;10.30;;;5.00;99.90;;;;;;5067042;28;20635;-49
2022/10/12 01:32:14;;;;;;;10.98;9.73;;;5.00;99.90;;;;;;5068881;28;20223;-47
2022/10/12 01:34:42;;;;;;;12.43;10.02;;;4.90;99.90;;;;;;5068629;28;20279;-45
2022/10/12 01:37:41;;;;;;;13.00;9.57;;;4.90;99.90;;;;;;5068470;28;20240;-51
2022/10/12 01:40:10;;;;;;;11.98;9.80;;;4.90;99.90;;;;;;5069185;28;20250;-50
2022/10/12 01:42:40;;;;;;;13.68;9.07;;;4.80;99.90;;;;;;5060732;28;20182;-48
2022/10/12 01:45:13;;;;;;;14.00;9.68;;;4.90;99.90;;;;;;5055466;28;20182;-49
2022/10/12 01:47:41;;;;;;;16.52;10.02;;;4.80;99.90;;;;;;5063458;28;20191;-46
2022/10/12 01:50:09;;;;;;;9.75;8.70;;;4.80;99.90;;;;;;5069345;28;20177;-52
2022/10/12 01:52:57;;;;;;;11.68;9.40;;;4.80;99.90;;;;;;5056112;28;20208;-46
2022/10/12 01:55:37;;;;;;;12.05;10.23;;;4.80;99.90;;;;;;5058102;28;20284;-46
2022/10/12 01:58:33;;;;;;;14.32;9.77;;;4.80;99.90;;;;;;5067205;28;20185;-48
2022/10/12 02:01:20;;;;;;;15.45;8.98;;;4.80;99.90;;;;;;5069837;28;20185;-48
2022/10/12 02:03:56;;;;;;;11.15;9.73;;;4.70;99.90;;;;;;5071035;28;20253;-54
2022/10/12 02:06:27;;;;;;;16.40;9.70;;;4.70;99.90;;;;;;5057352;28;20667;-47
2022/10/12 02:09:18;;;;;;;19.10;10.75;;;4.70;99.90;;;;;;5065046;28;20182;-45
2022/10/12 02:11:45;;;;;;;13.30;9.95;;;4.70;99.90;;;;;;5053212;28;20189;-52
2022/10/12 02:14:21;;;;;;;12.85;9.45;;;4.60;99.90;;;;;;5071031;28;20185;-49
2022/10/12 02:16:57;;;;;;;14.35;9.95;;;4.60;99.90;;;;;;5059867;28;20177;-45
2022/10/12 02:19:26;;;;;;;15.00;9.93;;;4.60;99.90;;;;;;5069598;28;20221;-48
2022/10/12 02:21:55;;;;;;;12.75;9.73;;;4.50;99.90;;;;;;5069179;28;20181;-50
2022/10/12 02:24:22;;;;;;;17.50;9.85;;;4.50;99.90;;;;;;5068212;28;20187;-47
2022/10/12 02:26:51;;;;;;;13.38;10.60;;;4.50;99.90;;;;;;5069369;28;20177;-45
2022/10/12 02:29:21;;;;;;;14.27;10.68;;;4.50;99.90;;;;;;5056778;28;20576;-47
2022/10/12 02:32:14;;;;;;;13.15;9.70;;;4.50;99.90;;;;;;5069541;28;20620;-49
2022/10/12 02:34:45;;;;;;;13.63;9.60;;;4.40;99.90;;;;;;5057068;28;20651;-48
2022/10/12 02:37:27;;;;;;;12.75;9.95;;;4.40;99.90;;;;;;5059128;28;20222;-45
2022/10/12 02:39:56;;;;;;;15.82;9.40;;;4.40;99.90;;;;;;5062651;28;20292;-51
2022/10/12 02:42:29;;;;;;;15.70;9.57;;;4.40;99.90;;;;;;5070228;28;20751;-48
2022/10/12 02:44:58;;;;;;;14.65;10.15;;;4.40;99.90;;;;;;5060132;28;20185;-46
2022/10/12 02:47:25;;;;;;;14.02;10.10;;;4.40;99.90;;;;;;5061845;28;20819;-48
2022/10/12 02:49:54;;;;;;;15.50;10.23;;;4.40;99.90;;;;;;5059391;28;20210;-45
2022/10/12 02:52:21;;;;;;;13.68;9.10;;;4.40;99.90;;;;;;5063511;28;20185;-48
2022/10/12 02:54:47;;;;;;;15.02;9.82;;;4.30;99.90;;;;;;5066957;28;20247;-46
2022/10/12 02:57:12;;;;;;;10.60;9.10;;;4.30;99.90;;;;;;5055234;28;20197;-50
2022/10/12 02:59:38;;;;;;;16.00;10.47;;;4.30;99.90;;;;;;5051796;28;20206;-52
2022/10/12 03:02:03;;;;;;;14.80;10.50;;;4.30;99.90;;;;;;5062331;28;20197;-50
2022/10/12 03:04:29;;;;;;;16.90;11.00;;;4.30;99.90;;;;;;5067280;28;20188;-46
2022/10/12 03:06:54;;;;;;;16.40;9.87;;;4.30;99.90;;;;;;5070291;28;20173;-45
2022/10/12 03:09:20;;;;;;;11.63;9.83;;;4.30;99.90;;;;;;5066313;28;20217;-45
2022/10/12 03:11:46;;;;;;;14.27;9.70;;;4.30;99.90;;;;;;5068577;28;20196;-44
2022/10/12 03:14:13;;;;;;;11.67;9.77;;;4.20;99.90;;;;;;5066446;28;20604;-44
2022/10/12 03:16:39;;;;;;;13.63;10.05;;;4.20;99.90;;;;;;5050681;28;20820;-46
2022/10/12 03:19:06;;;;;;;13.63;10.35;;;4.20;99.90;;;;;;5060884;28;20292;-43
2022/10/12 03:21:31;;;;;;;12.55;9.20;;;4.20;99.90;;;;;;5058296;28;20268;-45
2022/10/12 03:23:57;;;;;;;14.07;9.53;;;4.10;99.90;;;;;;5054762;28;20248;-47
2022/10/12 03:26:22;;;;;;;15.10;10.07;;;4.20;99.90;;;;;;5056367;28;20625;-47
2022/10/12 03:28:48;;;;;;;13.97;9.70;;;4.20;99.90;;;;;;5069178;28;20193;-49
2022/10/12 03:31:15;;;;;;;11.80;10.10;;;4.20;99.90;;;;;;5057324;28;20719;-47
2022/10/12 03:33:41;;;;;;;13.15;9.30;;;4.20;99.90;;;;;;5055731;28;20915;-47
2022/10/12 03:36:07;;;;;;;13.80;9.27;;;4.10;99.90;;;;;;5051141;28;20190;-46
2022/10/12 03:38:32;;;;;;;13.48;9.82;;;4.10;99.90;;;;;;5049664;28;20296;-44
2022/10/12 03:40:58;;;;;;;15.40;10.10;;;4.10;99.90;;;;;;5064360;28;20599;-44
2022/10/12 03:43:23;;;;;;;12.77;9.67;;;4.10;99.90;;;;;;5048934;28;20683;-46
2022/10/12 03:45:49;;;;;;;12.03;10.23;;;4.00;99.90;;;;;;5066612;28;20189;-48
2022/10/12 03:48:15;;;;;;;12.50;9.67;;;4.00;99.90;;;;;;5068840;28;20169;-46
2022/10/12 03:50:40;;;;;;;13.77;10.00;;;4.00;99.90;;;;;;5054058;28;20173;-49
2022/10/12 03:53:06;;;;;;;12.17;9.77;;;3.90;99.90;;;;;;5069200;28;20407;-48
2022/10/12 03:55:32;;;;;;;14.60;8.93;;;3.90;99.90;;;;;;5065497;28;20207;-49
2022/10/12 03:57:58;;;;;;;15.67;10.10;;;3.90;99.90;;;;;;5058945;28;20522;-45
2022/10/12 04:00:24;;;;;;;11.50;9.00;;;3.90;99.90;;;;;;5068161;28;20464;-46
2022/10/12 04:02:49;;;;;;;13.05;10.30;;;3.90;99.90;;;;;;5067686;28;20196;-46
2022/10/12 04:05:16;;;;;;;14.73;9.63;;;3.90;99.90;;;;;;5055254;28;20185;-47
2022/10/12 04:07:41;;;;;;;13.98;9.52;;;3.90;99.90;;;;;;5056221;28;20216;-49
2022/10/12 04:10:07;;;;;;;13.70;10.33;;;3.80;99.90;;;;;;5065984;28;20602;-47
2022/10/12 04:12:33;;;;;;;13.43;10.00;;;3.80;99.90;;;;;;5062262;28;20653;-47
2022/10/12 04:14:59;;;;;;;11.00;9.43;;;3.80;99.90;;;;;;5055777;28;20194;-48
2022/10/12 04:17:24;;;;;;;13.23;9.57;;;3.80;99.90;;;;;;5046987;28;20263;-50
2022/10/12 04:19:50;;;;;;;14.23;10.20;;;3.80;99.90;;;;;;5053316;28;20208;-47
2022/10/12 04:22:15;;;;;;;14.27;9.90;;;3.80;99.90;;;;;;5043694;28;20182;-47
2022/10/12 04:24:41;;;;;;;11.57;8.97;;;3.70;99.90;;;;;;5051139;28;20263;-49
2022/10/12 04:27:06;;;;;;;12.40;9.97;;;3.80;99.90;;;;;;5046813;28;20189;-51
2022/10/12 04:29:32;;;;;;;12.77;9.00;;;3.80;99.90;;;;;;5052062;28;20193;-52
2022/10/12 04:31:57;;;;;;;12.87;8.63;;;3.80;99.90;;;;;;5051483;28;20197;-49
2022/10/12 04:34:23;;;;;;;14.73;9.83;;;3.80;99.90;;;;;;5051058;28;20278;-50
2022/10/12 04:36:49;;;;;;;13.73;9.80;;;3.80;99.90;;;;;;5048227;28;20321;-51
2022/10/12 04:39:14;;;;;;;13.87;9.73;;;3.70;99.90;;;;;;5053742;28;20216;-52
2022/10/12 04:41:40;;;;;;;19.63;13.50;;;3.70;99.90;;;;;;5067704;28;20477;-52
2022/10/12 04:44:07;;;;;;;18.00;12.87;;;3.70;99.90;;;;;;5066711;28;20199;-52
2022/10/12 04:46:33;;;;;;;17.60;12.40;;;3.70;99.90;;;;;;5068431;28;20836;-52
2022/10/12 04:48:58;;;;;;;15.53;10.30;;;3.80;99.90;;;;;;5062053;28;20192;-53
2022/10/12 04:51:24;;;;;;;15.30;10.37;;;3.80;99.90;;;;;;5067741;28;20922;-53
2022/10/12 04:53:50;;;;;;;14.90;10.17;;;3.80;99.90;;;;;;5065145;28;20185;-52
2022/10/12 04:56:16;;;;;;;14.32;11.00;;;3.80;99.90;;;;;;5071140;28;20181;-49
2022/10/12 04:58:42;;;;;;;12.68;10.45;;;3.80;99.90;;;;;;5071321;28;20201;-52
2022/10/12 05:01:07;;;;;;;12.53;10.63;;;3.70;99.90;;;;;;5064028;28;20232;-50
2022/10/12 05:03:33;;;;;;;13.30;10.10;;;3.70;99.90;;;;;;5061381;28;20235;-53
2022/10/12 05:05:58;;;;;;;13.40;10.70;;;3.70;99.90;;;;;;5069808;28;20200;-51
2022/10/12 05:08:24;;;;;;;12.97;9.40;;;3.70;99.90;;;;;;5066853;28;20226;-50
2022/10/12 05:10:50;;;;;;;10.93;9.63;;;3.70;99.90;;;;;;5064689;28;20193;-49
2022/10/12 05:13:16;;;;;;;14.90;9.87;;;3.70;99.90;;;;;;5070700;28;20431;-49
2022/10/12 05:15:42;;;;;;;12.00;9.73;;;3.60;99.90;;;;;;5063058;28;20477;-51
2022/10/12 05:18:08;;;;;;;12.13;10.05;;;3.60;99.90;;;;;;5051900;28;20186;-50
2022/10/12 05:20:34;;;;;;;11.77;10.43;;;3.60;99.90;;;;;;5060337;28;20666;-50
2022/10/12 05:22:59;;;;;;;14.03;10.73;;;3.60;99.90;;;;;;5071722;28;20231;-45
2022/10/12 05:25:28;;;;;;;16.20;11.40;;;3.70;99.90;;;;;;5068270;28;20427;-49
2022/10/12 05:27:54;;;;;;;15.30;10.68;;;3.60;99.90;;;;;;5065019;28;20206;-51
2022/10/12 05:30:19;;;;;;;16.02;10.82;;;3.60;99.90;;;;;;5066429;28;20185;-49
2022/10/12 05:32:45;;;;;;;14.83;10.90;;;3.70;99.90;;;;;;5069676;28;20250;-48
2022/10/12 05:35:10;;;;;;;15.97;10.40;;;3.60;99.90;;;;;;5057934;28;20296;-48
2022/10/12 05:37:36;;;;;;;16.87;11.07;;;3.60;99.90;;;;;;5071260;28;20243;-48
2022/10/12 05:40:02;;;;;;;16.40;11.00;;;3.60;99.90;;;;;;5062014;28;20295;-50
2022/10/12 05:42:28;;;;;;;15.63;11.30;;;3.60;99.90;;;;;;5071351;28;20252;-49
2022/10/12 05:44:53;;;;;;;16.50;10.37;;;3.60;99.90;;;;;;5057443;28;20444;-51
2022/10/12 05:47:19;;;;;;;13.63;11.57;;;3.60;99.90;;;;;;5062663;28;20173;-46
2022/10/12 05:49:45;;;;;;;13.33;10.10;;;3.60;99.90;;;;;;5062710;28;20211;-48
2022/10/12 05:52:10;;;;;;;16.03;11.20;;;3.60;99.90;;;;;;5070946;28;20191;-49
2022/10/12 05:54:36;;;;;;;15.47;11.13;;;3.60;99.90;;;;;;5058029;28;20232;-48
2022/10/12 05:57:01;;;;;;;14.60;9.60;;;3.60;99.90;;;;;;5069068;28;20940;-50
2022/10/12 05:59:27;;;;;;;12.10;10.20;;;3.60;99.90;;;;;;5063727;28;20546;-49
2022/10/12 06:01:52;;;;;;;12.10;9.80;;;3.70;99.90;;;;;;5058811;28;20182;-51
2022/10/12 06:04:18;;;;;;;19.03;10.67;;;3.70;99.90;;;;;;5068695;28;20177;-49
2022/10/12 06:06:44;;;;;;;18.97;10.87;;;3.80;99.90;;;;;;5056760;28;20177;-51
2022/10/12 06:09:11;;;;;;;11.60;10.00;;;3.80;99.90;;;;;;5062141;28;20462;-51
2022/10/12 06:11:36;;;;;;;12.15;10.18;;;3.80;99.90;;;;;;5067728;28;20666;-48
2022/10/12 06:14:02;;;;;;;14.70;10.37;;;3.90;99.90;;;;;;5068745;28;20184;-54
2022/10/12 06:16:28;;;;;;;17.90;12.13;;;3.90;99.90;;;;;;5066415;28;20185;-50
2022/10/12 06:18:54;;;;;;;18.20;11.17;;;3.90;99.90;;;;;;5068595;28;20463;-53
2022/10/12 06:21:19;;;;;;;16.23;10.40;;;3.90;99.90;;;;;;5070234;28;20203;-52
2022/10/12 06:23:45;;;;;;;14.67;10.47;;;3.90;99.90;;;;;;5065400;28;20180;-51
2022/10/12 06:26:10;;;;;;;17.23;12.40;;;4.00;99.90;;;;;;5068146;28;20193;-52
2022/10/12 06:28:36;;;;;;;14.20;10.27;;;4.00;99.90;;;;;;5056429;28;20204;-49
2022/10/12 06:31:02;;;;;;;13.43;9.80;;;4.10;99.90;;;;;;5070158;28;20203;-48
2022/10/12 06:33:28;;;;;;;10.67;9.20;;;4.10;99.90;;;;;;5073962;28;20202;-53
2022/10/12 06:35:54;;;;;;;12.68;10.23;;;4.20;99.90;;;;;;5065533;28;20354;-49
2022/10/12 06:38:20;;;;;;;12.82;10.13;;;4.20;99.90;;;;;;5069982;28;20181;-51
2022/10/12 06:40:46;;;;;;;14.77;9.77;;;4.30;99.90;;;;;;5055516;28;20189;-52
2022/10/12 06:43:11;;;;;;;15.33;9.63;;;4.40;99.90;;;;;;5062290;28;20486;-51
2022/10/12 06:45:37;;;;;;;15.37;10.10;;;4.40;99.90;;;;;;5068215;28;20175;-53
2022/10/12 06:48:04;;;;;;;12.63;9.90;;;4.40;99.90;;;;;;5053075;28;20186;-50
2022/10/12 06:50:30;;;;;;;12.07;9.43;;;4.40;99.90;;;;;;5049840;28;20722;-50
2022/10/12 06:52:55;;;;;;;12.90;9.77;;;4.50;99.90;;;;;;5053195;28;20181;-49
2022/10/12 06:55:21;;;;;;;13.97;9.83;;;4.60;99.90;;;;;;5069700;28;20247;-50
2022/10/12 06:57:46;;;;;;;11.13;9.13;;;4.60;99.90;;;;;;5056067;28;20182;-48
2022/10/12 07:00:13;;;;;;;12.60;8.90;;;4.80;99.90;;;;;;5069032;28;20205;-48
2022/10/12 07:02:39;;;;;;;15.65;10.25;;;4.90;99.90;;;;;;5065465;28;20205;-54
2022/10/12 07:05:06;;;;;;;12.80;10.13;;;4.90;99.90;;;;;;5058636;28;20182;-49
2022/10/12 07:07:33;;;;;;;15.73;10.10;;;5.00;99.90;;;;;;5074733;28;20259;-48
2022/10/12 07:09:59;;;;;;;12.88;9.25;;;5.10;99.90;;;;;;5073966;28;20181;-51
2022/10/12 07:12:25;;;;;;;13.87;9.60;;;5.20;99.90;;;;;;5064580;28;20192;-49
2022/10/12 07:14:51;;;;;;;13.50;9.27;;;5.40;99.90;;;;;;5072904;28;20442;-49
2022/10/12 07:17:17;;;;;;;12.97;9.87;;;5.40;99.90;;;;;;5066850;28;20235;-53
2022/10/12 07:19:42;;;;;;;9.67;8.47;;;5.50;99.90;;;;;;5058493;28;20467;-53
2022/10/12 07:22:08;;;;;;;12.73;9.10;;;5.60;99.90;;;;;;5063695;28;20239;-48
2022/10/12 07:24:36;;;;;;;12.73;9.37;;;5.60;99.90;;;;;;5049843;28;20186;-53
2022/10/12 07:27:07;;;;;;;12.15;8.27;;;5.60;99.90;;;;;;5054411;28;20174;-52
2022/10/12 07:29:34;;;;;;;10.38;8.00;;;5.70;99.90;;;;;;5058178;28;20646;-51
2022/10/12 07:32:00;;;;;;;13.65;8.32;;;5.80;99.90;;;;;;5067363;28;20185;-53
2022/10/12 07:34:26;;;;;;;12.33;8.17;;;5.90;99.90;;;;;;5069261;28;20196;-51
2022/10/12 07:36:51;;;;;;;13.43;7.80;;;6.00;99.90;;;;;;5069245;28;20581;-51
2022/10/12 07:39:17;;;;;;;13.73;8.10;;;6.10;99.90;;;;;;5069392;28;20214;-50
2022/10/12 07:41:43;;;;;;;10.98;8.80;;;6.20;99.90;;;;;;5069170;28;20239;-51
2022/10/12 07:44:09;;;;;;;13.27;8.13;;;6.30;99.90;;;;;;5062283;28;20581;-50
2022/10/12 07:46:35;;;;;;;9.43;8.40;;;6.40;99.90;;;;;;5057915;28;20981;-49
2022/10/12 07:49:01;;;;;;;13.17;8.50;;;6.70;99.90;;;;;;5057293;28;20196;-51
2022/10/12 07:51:27;;;;;;;10.70;8.77;;;7.00;99.90;;;;;;5069030;28;20611;-48
2022/10/12 07:53:52;;;;;;;10.13;7.50;;;7.40;99.90;;;;;;5063181;28;20556;-48
2022/10/12 07:56:18;;;;;;;9.07;7.23;;;7.80;99.90;;;;;;5049311;28;20847;-48
2022/10/12 07:58:52;;;;;;;8.60;6.63;;;8.30;99.90;;;;;;5054384;28;20781;-50
2022/10/12 08:01:19;;;;;;;12.00;6.97;;;8.90;99.90;;;;;;5069461;28;20921;-48
2022/10/12 08:03:45;;;;;;;9.70;5.90;;;9.70;99.90;;;;;;5069350;28;20458;-50
2022/10/12 08:06:17;;;;;;;7.43;6.10;;;10.50;99.90;;;;;;5069226;28;20482;-48
2022/10/12 08:08:43;;;;;;;7.33;5.70;;;11.30;99.90;;;;;;5055410;28;20427;-52
2022/10/12 08:11:09;;;;;;;6.83;5.67;;;12.20;99.90;;;;;;5057833;28;20440;-49
2022/10/12 08:13:36;;;;;;;6.37;5.77;;;12.90;99.90;;;;;;5053002;28;20737;-48
2022/10/12 08:16:03;;;;;;;7.57;6.30;;;13.40;99.90;;;;;;5073477;28;20454;-52
2022/10/12 08:18:29;;;;;;;8.57;7.67;;;14.10;99.90;;;;;;5059373;28;20415;-51
2022/10/12 08:20:55;;;;;;;8.37;7.03;;;14.60;99.90;;;;;;5061398;28;20467;-49
2022/10/12 08:23:21;;;;;;;7.40;6.60;;;14.90;99.90;;;;;;5071806;28;20950;-51
2022/10/12 08:25:55;;;;;;;8.10;7.27;;;15.60;98.30;;;;;;5055453;28;20457;-48
2022/10/12 08:28:21;;;;;;;7.73;6.90;;;16.50;92.30;;;;;;5060406;28;20570;-52
2022/10/12 08:30:47;;;;;;;7.70;7.00;;;17.10;91.40;;;;;;5072654;28;20767;-53
2022/10/12 08:33:13;;;;;;;7.50;6.80;;;17.50;86.60;;;;;;5072981;28;20407;-51
2022/10/12 08:35:39;;;;;;;8.73;7.93;;;17.50;83.80;;;;;;5072018;28;20181;-52
2022/10/12 08:38:06;;;;;;;7.60;6.90;;;17.90;82.30;;;;;;5072622;28;20854;-44
2022/10/12 08:40:45;;;;;;;7.50;6.90;;;18.50;78.10;;;;;;5072887;28;20443;-49
2022/10/12 08:43:42;;;;;;;8.03;6.90;;;18.30;77.10;;;;;;5072430;28;20403;-52
2022/10/12 08:46:07;;;;;;;8.67;7.77;;;18.20;77.00;;;;;;5072664;28;20883;-52
2022/10/12 08:49:04;;;;;;;7.90;7.20;;;18.60;74.20;;;;;;5072663;28;20417;-53
2022/10/12 08:51:34;;;;;;;8.63;7.83;;;19.00;72.70;;;;;;5072613;28;20403;-52
2022/10/12 08:54:07;;;;;;;9.00;7.83;;;19.60;68.70;;;;;;5071148;28;20485;-45
2022/10/12 08:56:34;;;;;;;7.93;7.20;;;20.50;63.00;;;;;;5072310;28;20411;-52
2022/10/12 08:59:01;;;;;;;8.87;7.60;;;20.80;60.60;;;;;;5072169;28;21101;-49
2022/10/12 09:01:59;;;;;;;7.53;6.83;;;21.10;57.50;;;;;;5072299;28;20431;-51
2022/10/12 09:04:46;;;;;;;7.40;6.80;;;21.60;56.90;;;;;;5052377;28;20476;-53
2022/10/12 09:07:18;;;;;;;7.90;7.30;;;21.60;56.00;;;;;;5066315;28;20960;-54
2022/10/12 09:10:01;;;;;;;7.87;7.27;;;22.00;53.80;;;;;;5072349;28;20745;-53
2022/10/12 09:12:51;;;;;;;7.43;6.73;;;22.10;51.00;;;;;;5072328;28;20834;-49
2022/10/12 09:15:21;;;;;;;7.63;6.80;;;22.40;52.20;;;;;;5072197;28;20407;-53
2022/10/12 09:17:52;;;;;;;7.37;6.60;;;22.70;49.50;;;;;;5072110;28;20439;-50
2022/10/12 09:20:24;;;;;;;7.20;6.67;;;23.10;49.50;;;;;;5071856;28;20454;-51
2022/10/12 09:22:54;;;;;;;7.60;6.90;;;23.30;48.40;;;;;;5072201;28;21281;-50
2022/10/12 09:25:24;;;;;;;7.17;6.47;;;23.20;48.20;;;;;;5072167;28;20403;-53
2022/10/12 09:27:50;;;;;;;7.90;7.13;;;23.10;47.70;;;;;;5066596;28;20940;-52
2022/10/12 09:30:18;;;;;;;7.83;7.13;;;23.40;47.30;;;;;;5071803;28;20420;-50
2022/10/12 09:33:19;;;;;;;7.70;6.93;;;22.10;49.00;;;;;;5063636;28;20405;-48
2022/10/12 09:35:46;;;;;;;8.27;7.57;;;22.10;50.70;;;;;;5066023;28;20431;-50
2022/10/12 09:38:12;;;;;;;7.23;6.73;;;22.30;50.90;;;;;;5057559;28;20478;-52
2022/10/12 09:40:38;;;;;;;7.90;7.10;;;22.90;50.10;;;;;;5050330;28;20819;-53
2022/10/12 09:43:06;;;;;;;7.30;6.80;;;23.30;47.70;;;;;;5056394;28;20554;-51
2022/10/12 09:45:33;;;;;;;7.30;6.70;;;22.70;48.60;;;;;;5057606;28;20524;-54
2022/10/12 09:48:17;;;;;;;7.33;6.67;;;23.30;49.30;;;;;;5069465;28;20439;-51
2022/10/12 09:50:44;;;;;;;6.97;6.30;;;24.00;45.10;;;;;;5063773;28;20510;-49
2022/10/12 09:53:42;;;;;;;6.60;5.97;;;24.30;43.50;;;;;;5058181;28;20913;-53
2022/10/12 09:56:21;;;;;;;6.50;5.93;;;24.30;43.00;;;;;;5066988;28;20439;-52
2022/10/12 09:58:53;;;;;;;7.17;5.70;;;24.40;42.60;;;;;;5070605;28;20880;-53
2022/10/12 10:01:27;;;;;;;7.60;6.97;;;24.30;42.90;;;;;;5065365;28;20465;-52
2022/10/12 10:04:21;;;;;;;6.00;5.40;;;24.00;45.10;;;;;;5068389;28;20411;-55
2022/10/12 10:06:47;;;;;;;6.63;6.00;;;24.50;42.00;;;;;;5087379;28;20431;-51
2022/10/12 10:09:34;;;;;;;6.00;5.60;;;24.70;42.40;;;;;;5070832;28;20420;-54
2022/10/12 10:12:24;;;;;;;7.33;5.20;;;24.50;41.80;;;;;;5064896;28;20181;-51
2022/10/12 10:14:52;;;;;;;6.60;6.10;;;24.30;42.00;;;;;;5053078;28;20468;-54
2022/10/12 10:17:30;;;;;;;6.80;6.10;;;24.30;42.00;;;;;;5071536;28;20917;-54
2022/10/12 10:19:57;;;;;;;5.53;5.00;;;24.70;41.20;;;;;;5063459;28;20470;-55
2022/10/12 10:22:24;;;;;;;6.57;6.00;;;25.10;40.30;;;;;;5061245;28;20439;-55
2022/10/12 10:24:56;;;;;;;7.20;6.47;;;25.00;40.40;;;;;;5057891;28;20447;-53
2022/10/12 10:27:32;;;;;;;5.63;5.13;;;25.10;40.30;;;;;;5065700;28;21711;-53
2022/10/12 10:30:14;;;;;;;6.20;5.70;;;25.90;39.40;;;;;;5068792;28;20418;-54
2022/10/12 10:32:43;;;;;;;6.40;5.80;;;26.30;35.50;;;;;;5067672;28;20447;-53
2022/10/12 10:35:12;;;;;;;7.20;6.40;;;26.40;35.20;;;;;;5069410;28;20466;-50
2022/10/12 10:37:54;;;;;;;7.00;6.40;;;27.00;31.90;;;;;;5062037;28;20578;-52
2022/10/12 10:40:24;;;;;;;7.30;6.63;;;26.80;30.40;;;;;;5068375;28;20528;-54
2022/10/12 10:42:54;;;;;;;6.87;6.37;;;26.80;32.50;;;;;;5068888;28;20589;-52
2022/10/12 10:45:23;;;;;;;7.03;6.33;;;26.70;30.50;;;;;;5065166;28;20423;-53
2022/10/12 10:47:49;;;;;;;7.50;6.30;;;27.00;32.40;;;;;;5065143;28;20580;-55
2022/10/12 10:50:42;;;;;;;8.47;7.20;;;27.00;29.50;;;;;;5069640;28;20507;-51
2022/10/12 10:53:23;;;;;;;6.90;6.50;;;26.80;28.70;;;;;;5065924;28;20182;-52
2022/10/12 10:55:59;;;;;;;6.57;5.93;;;26.70;29.80;;;;;;5067539;28;20936;-51
2022/10/12 10:58:49;;;;;;;6.50;6.10;;;27.00;29.50;;;;;;5067978;28;20956;-55
2022/10/12 11:01:30;;;;;;;7.17;6.57;;;27.00;29.90;;;;;;5061341;28;20447;-55
2022/10/12 11:04:06;;;;;;;6.00;5.50;;;27.30;28.70;;;;;;5067549;28;20506;-53
2022/10/12 11:06:39;;;;;;;6.43;5.93;;;27.60;27.60;;;;;;5060843;28;20427;-55
2022/10/12 11:09:12;;;;;;;6.87;6.33;;;27.60;28.60;;;;;;5054261;28;20447;-56
2022/10/12 11:11:40;;;;;;;7.80;6.17;;;27.60;28.90;;;;;;5068430;28;20963;-51
2022/10/12 11:14:19;;;;;;;6.80;6.30;;;27.30;29.20;;;;;;5068788;28;20439;-54
2022/10/12 11:16:56;;;;;;;7.73;7.07;;;27.40;28.90;;;;;;5061537;28;20450;-51
2022/10/12 11:19:41;;;;;;;6.80;6.30;;;27.30;29.60;;;;;;5061615;28;21115;-52
2022/10/12 11:22:19;;;;;;;7.00;6.30;;;27.70;28.00;;;;;;5065460;28;20894;-55
2022/10/12 11:25:20;;;;;;;7.10;6.60;;;27.60;28.40;;;;;;5068013;28;20419;-53
2022/10/12 11:27:46;;;;;;;6.90;6.40;;;27.40;29.10;;;;;;5050829;28;20426;-52
2022/10/12 11:30:24;;;;;;;6.10;5.70;;;28.30;28.30;;;;;;5058259;28;20477;-55
2022/10/12 11:33:00;;;;;;;6.87;6.40;;;28.70;26.90;;;;;;5069008;28;20200;-52
2022/10/12 11:35:35;;;;;;;6.70;6.03;;;28.70;27.30;;;;;;5067853;28;20450;-52
2022/10/12 11:38:08;;;;;;;6.33;5.83;;;28.30;27.80;;;;;;5056509;28;20474;-53
2022/10/12 11:40:45;;;;;;;6.93;6.23;;;28.70;27.10;;;;;;5068486;28;20570;-55
2022/10/12 11:43:23;;;;;;;7.63;5.13;;;28.60;27.40;;;;;;5066854;28;20427;-53
2022/10/12 11:45:53;;;;;;;7.47;6.80;;;28.60;27.00;;;;;;5066650;28;20442;-51
2022/10/12 11:48:27;;;;;;;6.70;6.03;;;28.40;26.50;;;;;;5066918;28;20456;-54
2022/10/12 11:50:55;;;;;;;6.90;6.20;;;28.00;27.50;;;;;;5065830;28;20442;-52
2022/10/12 11:53:36;;;;;;;5.97;5.57;;;27.90;27.40;;;;;;5068051;28;21160;-55
2022/10/12 11:56:24;;;;;;;6.93;6.33;;;28.00;27.90;;;;;;5066451;28;20426;-54
2022/10/12 11:59:15;;;;;;;6.93;6.30;;;28.60;26.30;;;;;;5065931;28;20455;-54
2022/10/12 12:02:15;;;;;;;6.77;6.27;;;28.80;25.50;;;;;;5065056;28;20526;-52
2022/10/12 12:04:44;;;;;;;6.77;6.17;;;29.00;25.50;;;;;;5066823;28;20437;-53
2022/10/12 12:07:47;;;;;;;7.50;6.70;;;29.10;25.30;;;;;;5067317;28;20996;-54
2022/10/12 12:10:24;;;;;;;7.03;6.43;;;29.00;25.60;;;;;;5060774;28;20418;-54
2022/10/12 12:13:10;;;;;;;7.10;6.50;;;28.30;27.30;;;;;;5067798;28;20423;-51
2022/10/12 12:15:37;;;;;;;7.03;6.43;;;28.50;26.30;;;;;;5068704;28;20415;-51
2022/10/12 12:18:09;;;;;;;6.50;5.93;;;28.60;26.00;;;;;;5054419;28;20446;-51
2022/10/12 12:20:41;;;;;;;6.30;5.90;;;28.90;26.00;;;;;;5072614;28;20471;-55
2022/10/12 12:23:25;;;;;;;6.23;5.67;;;28.80;26.60;;;;;;5057431;28;20423;-54
2022/10/12 12:26:09;;;;;;;6.70;6.00;;;29.00;25.30;;;;;;5065120;28;20431;-54
2022/10/12 12:28:40;;;;;;;6.50;6.00;;;29.20;25.60;;;;;;5068056;28;20435;-51
2022/10/12 12:31:17;;;;;;;6.80;6.30;;;29.00;25.50;;;;;;5068178;28;20451;-55
2022/10/12 12:33:46;;;;;;;7.40;6.90;;;29.00;25.50;;;;;;5065777;28;20410;-52
2022/10/12 12:36:24;;;;;;;7.13;6.63;;;28.50;26.50;;;;;;5060280;28;20467;-51
2022/10/12 12:38:50;;;;;;;6.80;6.30;;;28.60;25.70;;;;;;5067650;28;20562;-55
2022/10/12 12:41:21;;;;;;;7.10;6.60;;;28.70;25.50;;;;;;5068212;28;20445;-54
2022/10/12 12:43:56;;;;;;;7.83;7.13;;;28.60;25.80;;;;;;5067794;28;21105;-52
2022/10/12 12:46:24;;;;;;;6.90;6.40;;;28.80;25.90;;;;;;5065615;28;20936;-56
2022/10/12 12:48:50;;;;;;;7.27;6.67;;;28.20;26.30;;;;;;5068116;28;20430;-53
2022/10/12 12:51:34;;;;;;;6.80;6.30;;;28.30;26.30;;;;;;5066651;28;20431;-51
2022/10/12 12:54:17;;;;;;;6.97;6.47;;;28.40;26.20;;;;;;5051238;28;20182;-56
2022/10/12 12:56:45;;;;;;;7.67;6.93;;;29.00;25.50;;;;;;5056144;28;20459;-56
2022/10/12 12:59:35;;;;;;;8.37;6.67;;;28.90;25.60;;;;;;5066087;28;20486;-55
2022/10/12 13:02:27;;;;;;;6.97;6.40;;;29.20;25.40;;;;;;5067899;28;20457;-56
2022/10/12 13:05:33;;;;;;;6.77;6.07;;;29.30;24.80;;;;;;5058401;28;20426;-53